sensor_id;sensor_type;location;lat;lon;timestamp;P1;durP1;ratioP1;P2;durP2;ratioP2
9815;SDS011;4947;44.526;11.360;2023-02-15T00:01:32;40.83;;;16.97;;
9815;SDS011;4947;44.526;11.360;2023-02-15T00:04:00;40.07;;;18.70;;
9815;SDS011;4947;44.526;11.360;2023-02-15T00:06:30;40.37;;;18.87;;
9815;SDS011;4947;44.526;11.360;2023-02-15T00:08:58;35.57;;;17.37;;
9815;SDS011;4947;44.526;11.360;2023-02-15T00:11:26;31.37;;;15.93;;
9815;SDS011;4947;44.526;11.360;2023-02-15T00:14:15;26.77;;;14.18;;
9815;SDS011;4947;44.526;11.360;2023-02-15T00:16:44;31.53;;;14.97;;
9815;SDS011;4947;44.526;11.360;2023-02-15T00:19:13;26.13;;;14.13;;
9815;SDS011;4947;44.526;11.360;2023-02-15T00:21:44;29.33;;;13.70;;
9815;SDS011;4947;44.526;11.360;2023-02-15T00:24:12;26.02;;;12.82;;
9815;SDS011;4947;44.526;11.360;2023-02-15T00:26:42;28.70;;;13.10;;
9815;SDS011;4947;44.526;11.360;2023-02-15T00:29:11;24.67;;;13.20;;
9815;SDS011;4947;44.526;11.360;2023-02-15T00:31:39;24.10;;;13.03;;
9815;SDS011;4947;44.526;11.360;2023-02-15T00:34:09;23.33;;;13.00;;
9815;SDS011;4947;44.526;11.360;2023-02-15T00:36:38;28.90;;;14.43;;
9815;SDS011;4947;44.526;11.360;2023-02-15T00:39:08;27.20;;;13.50;;
9815;SDS011;4947;44.526;11.360;2023-02-15T00:41:35;25.85;;;13.65;;
9815;SDS011;4947;44.526;11.360;2023-02-15T00:44:03;22.25;;;13.55;;
9815;SDS011;4947;44.526;11.360;2023-02-15T00:46:31;29.37;;;14.53;;
9815;SDS011;4947;44.526;11.360;2023-02-15T00:48:59;25.23;;;14.23;;
9815;SDS011;4947;44.526;11.360;2023-02-15T00:51:27;26.05;;;13.50;;
9815;SDS011;4947;44.526;11.360;2023-02-15T00:53:55;23.10;;;13.38;;
9815;SDS011;4947;44.526;11.360;2023-02-15T00:56:24;30.15;;;13.52;;
9815;SDS011;4947;44.526;11.360;2023-02-15T00:58:53;21.58;;;12.35;;
9815;SDS011;4947;44.526;11.360;2023-02-15T01:01:20;24.63;;;13.48;;
9815;SDS011;4947;44.526;11.360;2023-02-15T01:03:48;30.25;;;14.60;;
9815;SDS011;4947;44.526;11.360;2023-02-15T01:06:16;22.00;;;11.77;;
9815;SDS011;4947;44.526;11.360;2023-02-15T01:08:44;24.88;;;11.85;;
9815;SDS011;4947;44.526;11.360;2023-02-15T01:11:13;25.03;;;11.60;;
9815;SDS011;4947;44.526;11.360;2023-02-15T01:13:48;22.07;;;12.50;;
9815;SDS011;4947;44.526;11.360;2023-02-15T01:16:16;24.90;;;12.43;;
9815;SDS011;4947;44.526;11.360;2023-02-15T01:18:44;24.95;;;12.15;;
9815;SDS011;4947;44.526;11.360;2023-02-15T01:21:12;19.23;;;11.65;;
9815;SDS011;4947;44.526;11.360;2023-02-15T01:23:41;20.15;;;11.23;;
9815;SDS011;4947;44.526;11.360;2023-02-15T01:26:09;22.67;;;12.27;;
9815;SDS011;4947;44.526;11.360;2023-02-15T01:28:37;21.92;;;11.75;;
9815;SDS011;4947;44.526;11.360;2023-02-15T01:31:07;22.98;;;11.18;;
9815;SDS011;4947;44.526;11.360;2023-02-15T01:33:36;24.20;;;12.93;;
9815;SDS011;4947;44.526;11.360;2023-02-15T01:36:04;19.35;;;11.63;;
9815;SDS011;4947;44.526;11.360;2023-02-15T01:38:34;23.87;;;13.07;;
9815;SDS011;4947;44.526;11.360;2023-02-15T01:41:01;21.07;;;10.80;;
9815;SDS011;4947;44.526;11.360;2023-02-15T01:43:49;26.15;;;12.65;;
9815;SDS011;4947;44.526;11.360;2023-02-15T01:46:21;24.45;;;11.95;;
9815;SDS011;4947;44.526;11.360;2023-02-15T01:48:52;26.13;;;12.37;;
9815;SDS011;4947;44.526;11.360;2023-02-15T01:51:23;26.37;;;11.80;;
9815;SDS011;4947;44.526;11.360;2023-02-15T01:53:55;21.75;;;11.85;;
9815;SDS011;4947;44.526;11.360;2023-02-15T01:56:27;21.55;;;11.90;;
9815;SDS011;4947;44.526;11.360;2023-02-15T01:58:58;24.33;;;12.50;;
9815;SDS011;4947;44.526;11.360;2023-02-15T02:01:33;19.60;;;10.93;;
9815;SDS011;4947;44.526;11.360;2023-02-15T02:04:04;25.23;;;12.40;;
9815;SDS011;4947;44.526;11.360;2023-02-15T02:06:38;28.87;;;12.07;;
9815;SDS011;4947;44.526;11.360;2023-02-15T02:09:06;25.23;;;12.27;;
9815;SDS011;4947;44.526;11.360;2023-02-15T02:11:34;21.53;;;11.30;;
9815;SDS011;4947;44.526;11.360;2023-02-15T02:14:02;20.87;;;11.53;;
9815;SDS011;4947;44.526;11.360;2023-02-15T02:16:32;26.20;;;11.63;;
9815;SDS011;4947;44.526;11.360;2023-02-15T02:19:19;18.27;;;10.40;;
9815;SDS011;4947;44.526;11.360;2023-02-15T02:25:24;21.35;;;10.98;;
9815;SDS011;4947;44.526;11.360;2023-02-15T02:28:25;21.93;;;11.77;;
9815;SDS011;4947;44.526;11.360;2023-02-15T02:31:11;23.33;;;11.23;;
9815;SDS011;4947;44.526;11.360;2023-02-15T02:33:59;22.10;;;11.30;;
9815;SDS011;4947;44.526;11.360;2023-02-15T02:36:35;23.00;;;11.52;;
9815;SDS011;4947;44.526;11.360;2023-02-15T02:39:13;21.27;;;12.77;;
9815;SDS011;4947;44.526;11.360;2023-02-15T02:41:52;22.00;;;11.57;;
9815;SDS011;4947;44.526;11.360;2023-02-15T02:44:26;23.50;;;12.10;;
9815;SDS011;4947;44.526;11.360;2023-02-15T02:46:58;21.90;;;13.13;;
9815;SDS011;4947;44.526;11.360;2023-02-15T02:49:31;24.90;;;11.57;;
9815;SDS011;4947;44.526;11.360;2023-02-15T02:52:00;22.47;;;11.63;;
9815;SDS011;4947;44.526;11.360;2023-02-15T02:54:29;19.67;;;11.23;;
9815;SDS011;4947;44.526;11.360;2023-02-15T02:56:59;19.13;;;11.50;;
9815;SDS011;4947;44.526;11.360;2023-02-15T02:59:30;22.33;;;11.20;;
9815;SDS011;4947;44.526;11.360;2023-02-15T03:02:04;19.70;;;10.97;;
9815;SDS011;4947;44.526;11.360;2023-02-15T03:04:39;20.13;;;10.93;;
9815;SDS011;4947;44.526;11.360;2023-02-15T03:07:12;23.17;;;11.23;;
9815;SDS011;4947;44.526;11.360;2023-02-15T03:09:47;22.17;;;11.87;;
9815;SDS011;4947;44.526;11.360;2023-02-15T03:12:19;23.33;;;11.83;;
9815;SDS011;4947;44.526;11.360;2023-02-15T03:14:50;23.43;;;11.40;;
9815;SDS011;4947;44.526;11.360;2023-02-15T03:17:21;21.97;;;11.10;;
9815;SDS011;4947;44.526;11.360;2023-02-15T03:19:54;23.07;;;12.27;;
9815;SDS011;4947;44.526;11.360;2023-02-15T03:22:25;24.37;;;10.47;;
9815;SDS011;4947;44.526;11.360;2023-02-15T03:24:56;19.40;;;10.27;;
9815;SDS011;4947;44.526;11.360;2023-02-15T03:27:27;20.77;;;11.23;;
9815;SDS011;4947;44.526;11.360;2023-02-15T03:30:00;23.10;;;10.70;;
9815;SDS011;4947;44.526;11.360;2023-02-15T03:32:31;19.90;;;10.80;;
9815;SDS011;4947;44.526;11.360;2023-02-15T03:35:02;25.07;;;11.60;;
9815;SDS011;4947;44.526;11.360;2023-02-15T03:37:32;20.40;;;10.67;;
9815;SDS011;4947;44.526;11.360;2023-02-15T03:40:03;18.63;;;11.07;;
9815;SDS011;4947;44.526;11.360;2023-02-15T03:42:51;22.37;;;10.80;;
9815;SDS011;4947;44.526;11.360;2023-02-15T03:45:25;22.93;;;11.10;;
9815;SDS011;4947;44.526;11.360;2023-02-15T03:47:57;19.33;;;11.60;;
9815;SDS011;4947;44.526;11.360;2023-02-15T03:50:29;21.03;;;12.53;;
9815;SDS011;4947;44.526;11.360;2023-02-15T03:53:15;20.70;;;11.70;;
9815;SDS011;4947;44.526;11.360;2023-02-15T03:55:47;20.70;;;11.37;;
9815;SDS011;4947;44.526;11.360;2023-02-15T03:58:15;22.17;;;10.60;;
9815;SDS011;4947;44.526;11.360;2023-02-15T04:01:03;18.43;;;11.13;;
9815;SDS011;4947;44.526;11.360;2023-02-15T04:03:55;22.47;;;10.03;;
9815;SDS011;4947;44.526;11.360;2023-02-15T04:06:28;21.70;;;12.07;;
9815;SDS011;4947;44.526;11.360;2023-02-15T04:08:56;21.90;;;11.07;;
9815;SDS011;4947;44.526;11.360;2023-02-15T04:11:41;18.40;;;10.60;;
9815;SDS011;4947;44.526;11.360;2023-02-15T04:14:08;22.60;;;10.97;;
9815;SDS011;4947;44.526;11.360;2023-02-15T04:16:49;20.47;;;10.70;;
9815;SDS011;4947;44.526;11.360;2023-02-15T04:19:17;21.50;;;10.73;;
9815;SDS011;4947;44.526;11.360;2023-02-15T04:22:03;19.17;;;11.37;;
9815;SDS011;4947;44.526;11.360;2023-02-15T04:24:47;23.13;;;12.03;;
9815;SDS011;4947;44.526;11.360;2023-02-15T04:27:32;22.67;;;11.57;;
9815;SDS011;4947;44.526;11.360;2023-02-15T04:29:59;22.10;;;10.83;;
9815;SDS011;4947;44.526;11.360;2023-02-15T04:32:27;26.83;;;10.70;;
9815;SDS011;4947;44.526;11.360;2023-02-15T04:34:55;16.70;;;10.43;;
9815;SDS011;4947;44.526;11.360;2023-02-15T04:37:24;21.10;;;10.63;;
9815;SDS011;4947;44.526;11.360;2023-02-15T04:39:51;20.03;;;10.77;;
9815;SDS011;4947;44.526;11.360;2023-02-15T04:42:19;18.83;;;9.90;;
9815;SDS011;4947;44.526;11.360;2023-02-15T04:44:47;18.87;;;10.57;;
9815;SDS011;4947;44.526;11.360;2023-02-15T04:47:14;20.13;;;11.00;;
9815;SDS011;4947;44.526;11.360;2023-02-15T04:49:42;18.47;;;10.93;;
9815;SDS011;4947;44.526;11.360;2023-02-15T04:52:09;20.13;;;9.93;;
9815;SDS011;4947;44.526;11.360;2023-02-15T04:54:38;17.30;;;10.27;;
9815;SDS011;4947;44.526;11.360;2023-02-15T04:57:06;18.73;;;10.17;;
9815;SDS011;4947;44.526;11.360;2023-02-15T04:59:34;18.17;;;10.83;;
9815;SDS011;4947;44.526;11.360;2023-02-15T05:02:02;20.97;;;10.67;;
9815;SDS011;4947;44.526;11.360;2023-02-15T05:04:31;20.83;;;10.43;;
9815;SDS011;4947;44.526;11.360;2023-02-15T05:06:58;21.17;;;9.87;;
9815;SDS011;4947;44.526;11.360;2023-02-15T05:09:26;19.87;;;9.93;;
9815;SDS011;4947;44.526;11.360;2023-02-15T05:11:55;21.60;;;9.80;;
9815;SDS011;4947;44.526;11.360;2023-02-15T05:14:22;16.47;;;9.33;;
9815;SDS011;4947;44.526;11.360;2023-02-15T05:16:50;16.43;;;9.40;;
9815;SDS011;4947;44.526;11.360;2023-02-15T05:19:18;20.47;;;9.70;;
9815;SDS011;4947;44.526;11.360;2023-02-15T05:21:46;16.47;;;8.73;;
9815;SDS011;4947;44.526;11.360;2023-02-15T05:24:14;22.47;;;9.30;;
9815;SDS011;4947;44.526;11.360;2023-02-15T05:27:00;18.83;;;9.10;;
9815;SDS011;4947;44.526;11.360;2023-02-15T05:29:45;15.50;;;8.70;;
9815;SDS011;4947;44.526;11.360;2023-02-15T05:32:13;16.83;;;7.73;;
9815;SDS011;4947;44.526;11.360;2023-02-15T05:34:41;15.00;;;8.33;;
9815;SDS011;4947;44.526;11.360;2023-02-15T05:37:09;18.83;;;9.47;;
9815;SDS011;4947;44.526;11.360;2023-02-15T05:39:36;17.60;;;8.70;;
9815;SDS011;4947;44.526;11.360;2023-02-15T05:42:04;14.27;;;8.10;;
9815;SDS011;4947;44.526;11.360;2023-02-15T05:44:33;15.40;;;8.23;;
9815;SDS011;4947;44.526;11.360;2023-02-15T05:47:00;19.57;;;8.80;;
9815;SDS011;4947;44.526;11.360;2023-02-15T05:49:28;18.50;;;9.27;;
9815;SDS011;4947;44.526;11.360;2023-02-15T05:51:57;17.47;;;8.77;;
9815;SDS011;4947;44.526;11.360;2023-02-15T05:54:24;16.87;;;8.20;;
9815;SDS011;4947;44.526;11.360;2023-02-15T05:56:52;18.38;;;8.57;;
9815;SDS011;4947;44.526;11.360;2023-02-15T05:59:21;18.60;;;9.47;;
9815;SDS011;4947;44.526;11.360;2023-02-15T06:01:49;14.13;;;9.03;;
9815;SDS011;4947;44.526;11.360;2023-02-15T06:04:16;15.20;;;7.60;;
9815;SDS011;4947;44.526;11.360;2023-02-15T06:06:44;16.83;;;8.27;;
9815;SDS011;4947;44.526;11.360;2023-02-15T06:09:12;15.40;;;7.90;;
9815;SDS011;4947;44.526;11.360;2023-02-15T06:11:40;15.70;;;7.37;;
9815;SDS011;4947;44.526;11.360;2023-02-15T06:14:08;15.83;;;8.40;;
9815;SDS011;4947;44.526;11.360;2023-02-15T06:16:37;15.67;;;8.13;;
9815;SDS011;4947;44.526;11.360;2023-02-15T06:19:04;17.30;;;8.13;;
9815;SDS011;4947;44.526;11.360;2023-02-15T06:21:31;19.47;;;8.03;;
9815;SDS011;4947;44.526;11.360;2023-02-15T06:23:59;11.10;;;7.33;;
9815;SDS011;4947;44.526;11.360;2023-02-15T06:26:27;17.80;;;8.63;;
9815;SDS011;4947;44.526;11.360;2023-02-15T06:28:55;16.80;;;8.10;;
9815;SDS011;4947;44.526;11.360;2023-02-15T06:31:23;16.83;;;8.80;;
9815;SDS011;4947;44.526;11.360;2023-02-15T06:33:52;17.03;;;7.63;;
9815;SDS011;4947;44.526;11.360;2023-02-15T06:36:25;15.27;;;8.37;;
9815;SDS011;4947;44.526;11.360;2023-02-15T06:38:53;16.10;;;7.57;;
9815;SDS011;4947;44.526;11.360;2023-02-15T06:41:21;15.30;;;8.15;;
9815;SDS011;4947;44.526;11.360;2023-02-15T06:43:49;18.00;;;8.37;;
9815;SDS011;4947;44.526;11.360;2023-02-15T06:46:16;17.48;;;8.73;;
9815;SDS011;4947;44.526;11.360;2023-02-15T06:48:44;20.90;;;8.13;;
9815;SDS011;4947;44.526;11.360;2023-02-15T06:51:13;19.45;;;8.55;;
9815;SDS011;4947;44.526;11.360;2023-02-15T06:53:40;18.77;;;9.40;;
9815;SDS011;4947;44.526;11.360;2023-02-15T06:56:08;20.55;;;9.05;;
9815;SDS011;4947;44.526;11.360;2023-02-15T06:58:37;13.70;;;8.52;;
9815;SDS011;4947;44.526;11.360;2023-02-15T07:01:06;20.80;;;9.33;;
9815;SDS011;4947;44.526;11.360;2023-02-15T07:03:34;19.15;;;8.23;;
9815;SDS011;4947;44.526;11.360;2023-02-15T07:06:03;15.57;;;8.20;;
9815;SDS011;4947;44.526;11.360;2023-02-15T07:08:35;17.40;;;8.43;;
9815;SDS011;4947;44.526;11.360;2023-02-15T07:11:03;22.95;;;9.25;;
9815;SDS011;4947;44.526;11.360;2023-02-15T07:13:48;21.00;;;8.57;;
9815;SDS011;4947;44.526;11.360;2023-02-15T07:16:17;21.10;;;8.15;;
9815;SDS011;4947;44.526;11.360;2023-02-15T07:18:45;18.85;;;8.95;;
9815;SDS011;4947;44.526;11.360;2023-02-15T07:21:13;18.00;;;8.57;;
9815;SDS011;4947;44.526;11.360;2023-02-15T07:23:42;14.07;;;8.07;;
9815;SDS011;4947;44.526;11.360;2023-02-15T07:26:11;20.08;;;8.05;;
9815;SDS011;4947;44.526;11.360;2023-02-15T07:28:39;20.63;;;8.05;;
9815;SDS011;4947;44.526;11.360;2023-02-15T07:31:06;18.02;;;8.60;;
9815;SDS011;4947;44.526;11.360;2023-02-15T07:33:34;21.75;;;8.13;;
9815;SDS011;4947;44.526;11.360;2023-02-15T07:36:02;19.52;;;8.98;;
9815;SDS011;4947;44.526;11.360;2023-02-15T07:38:32;17.50;;;9.00;;
9815;SDS011;4947;44.526;11.360;2023-02-15T07:41:03;16.05;;;8.82;;
9815;SDS011;4947;44.526;11.360;2023-02-15T07:43:33;21.40;;;8.10;;
9815;SDS011;4947;44.526;11.360;2023-02-15T07:46:02;20.92;;;9.07;;
9815;SDS011;4947;44.526;11.360;2023-02-15T07:48:31;21.52;;;8.68;;
9815;SDS011;4947;44.526;11.360;2023-02-15T07:50:58;20.98;;;10.70;;
9815;SDS011;4947;44.526;11.360;2023-02-15T07:53:26;20.00;;;9.32;;
9815;SDS011;4947;44.526;11.360;2023-02-15T07:55:54;20.75;;;8.95;;
9815;SDS011;4947;44.526;11.360;2023-02-15T07:58:26;19.15;;;9.27;;
9815;SDS011;4947;44.526;11.360;2023-02-15T08:01:07;20.50;;;8.88;;
9815;SDS011;4947;44.526;11.360;2023-02-15T08:03:34;18.45;;;9.90;;
9815;SDS011;4947;44.526;11.360;2023-02-15T08:06:02;18.67;;;8.30;;
9815;SDS011;4947;44.526;11.360;2023-02-15T08:08:30;28.10;;;9.18;;
9815;SDS011;4947;44.526;11.360;2023-02-15T08:11:00;15.73;;;7.50;;
9815;SDS011;4947;44.526;11.360;2023-02-15T08:13:49;19.30;;;8.52;;
9815;SDS011;4947;44.526;11.360;2023-02-15T08:16:24;19.65;;;9.00;;
9815;SDS011;4947;44.526;11.360;2023-02-15T08:18:53;19.30;;;9.23;;
9815;SDS011;4947;44.526;11.360;2023-02-15T08:21:22;17.60;;;8.60;;
9815;SDS011;4947;44.526;11.360;2023-02-15T08:23:51;17.88;;;7.60;;
9815;SDS011;4947;44.526;11.360;2023-02-15T08:26:19;22.00;;;9.10;;
9815;SDS011;4947;44.526;11.360;2023-02-15T08:28:49;20.08;;;8.32;;
9815;SDS011;4947;44.526;11.360;2023-02-15T08:31:17;19.90;;;7.93;;
9815;SDS011;4947;44.526;11.360;2023-02-15T08:33:46;19.98;;;7.78;;
9815;SDS011;4947;44.526;11.360;2023-02-15T08:36:16;16.23;;;7.43;;
9815;SDS011;4947;44.526;11.360;2023-02-15T08:38:45;18.95;;;7.88;;
9815;SDS011;4947;44.526;11.360;2023-02-15T08:41:14;15.05;;;7.40;;
9815;SDS011;4947;44.526;11.360;2023-02-15T08:43:44;20.23;;;9.13;;
9815;SDS011;4947;44.526;11.360;2023-02-15T08:46:14;19.80;;;10.15;;
9815;SDS011;4947;44.526;11.360;2023-02-15T08:48:42;17.92;;;7.93;;
9815;SDS011;4947;44.526;11.360;2023-02-15T08:51:12;16.80;;;7.47;;
9815;SDS011;4947;44.526;11.360;2023-02-15T08:53:41;23.20;;;9.75;;
9815;SDS011;4947;44.526;11.360;2023-02-15T08:56:11;19.45;;;9.85;;
9815;SDS011;4947;44.526;11.360;2023-02-15T08:58:39;27.33;;;11.75;;
9815;SDS011;4947;44.526;11.360;2023-02-15T09:01:09;28.42;;;12.38;;
9815;SDS011;4947;44.526;11.360;2023-02-15T09:03:39;25.35;;;12.38;;
9815;SDS011;4947;44.526;11.360;2023-02-15T09:06:06;29.17;;;14.02;;
9815;SDS011;4947;44.526;11.360;2023-02-15T09:08:34;32.15;;;13.70;;
9815;SDS011;4947;44.526;11.360;2023-02-15T09:11:05;33.53;;;15.00;;
9815;SDS011;4947;44.526;11.360;2023-02-15T09:13:34;36.88;;;15.18;;
9815;SDS011;4947;44.526;11.360;2023-02-15T09:16:04;32.95;;;13.82;;
9815;SDS011;4947;44.526;11.360;2023-02-15T09:18:33;31.00;;;14.50;;
9815;SDS011;4947;44.526;11.360;2023-02-15T09:21:10;32.42;;;15.23;;
9815;SDS011;4947;44.526;11.360;2023-02-15T09:23:39;31.10;;;14.60;;
9815;SDS011;4947;44.526;11.360;2023-02-15T09:26:08;32.08;;;14.48;;
9815;SDS011;4947;44.526;11.360;2023-02-15T09:28:37;32.10;;;15.63;;
9815;SDS011;4947;44.526;11.360;2023-02-15T09:31:06;39.45;;;16.25;;
9815;SDS011;4947;44.526;11.360;2023-02-15T09:33:35;32.78;;;15.25;;
9815;SDS011;4947;44.526;11.360;2023-02-15T09:36:03;35.70;;;14.68;;
9815;SDS011;4947;44.526;11.360;2023-02-15T09:38:34;32.55;;;14.68;;
9815;SDS011;4947;44.526;11.360;2023-02-15T09:41:09;36.10;;;15.32;;
9815;SDS011;4947;44.526;11.360;2023-02-15T09:43:54;31.83;;;15.85;;
9815;SDS011;4947;44.526;11.360;2023-02-15T09:46:37;35.35;;;15.50;;
9815;SDS011;4947;44.526;11.360;2023-02-15T09:49:26;38.45;;;15.55;;
9815;SDS011;4947;44.526;11.360;2023-02-15T09:52:14;37.90;;;15.32;;
9815;SDS011;4947;44.526;11.360;2023-02-15T09:54:56;35.15;;;15.52;;
9815;SDS011;4947;44.526;11.360;2023-02-15T09:57:36;33.42;;;16.77;;
9815;SDS011;4947;44.526;11.360;2023-02-15T10:00:14;38.08;;;16.55;;
9815;SDS011;4947;44.526;11.360;2023-02-15T10:02:56;39.65;;;16.83;;
9815;SDS011;4947;44.526;11.360;2023-02-15T10:05:38;38.17;;;17.27;;
9815;SDS011;4947;44.526;11.360;2023-02-15T10:08:21;37.58;;;16.25;;
9815;SDS011;4947;44.526;11.360;2023-02-15T10:11:03;37.13;;;15.15;;
9815;SDS011;4947;44.526;11.360;2023-02-15T10:13:54;44.63;;;18.10;;
9815;SDS011;4947;44.526;11.360;2023-02-15T10:16:33;39.90;;;17.27;;
9815;SDS011;4947;44.526;11.360;2023-02-15T10:19:10;36.10;;;16.88;;
9815;SDS011;4947;44.526;11.360;2023-02-15T10:21:49;39.03;;;17.48;;
9815;SDS011;4947;44.526;11.360;2023-02-15T10:24:29;38.65;;;17.60;;
9815;SDS011;4947;44.526;11.360;2023-02-15T10:27:18;33.65;;;14.82;;
9815;SDS011;4947;44.526;11.360;2023-02-15T10:29:48;34.63;;;15.30;;
9815;SDS011;4947;44.526;11.360;2023-02-15T10:32:28;33.83;;;15.63;;
9815;SDS011;4947;44.526;11.360;2023-02-15T10:35:01;30.70;;;14.57;;
9815;SDS011;4947;44.526;11.360;2023-02-15T10:37:39;34.92;;;16.15;;
9815;SDS011;4947;44.526;11.360;2023-02-15T10:40:20;32.88;;;13.45;;
9815;SDS011;4947;44.526;11.360;2023-02-15T10:43:01;34.65;;;14.82;;
9815;SDS011;4947;44.526;11.360;2023-02-15T10:45:52;36.65;;;15.90;;
9815;SDS011;4947;44.526;11.360;2023-02-15T10:51:35;33.53;;;16.30;;
9815;SDS011;4947;44.526;11.360;2023-02-15T10:54:12;35.85;;;18.20;;
9815;SDS011;4947;44.526;11.360;2023-02-15T10:56:50;47.47;;;18.88;;
9815;SDS011;4947;44.526;11.360;2023-02-15T10:59:44;39.22;;;19.38;;
9815;SDS011;4947;44.526;11.360;2023-02-15T11:02:25;50.95;;;21.83;;
9815;SDS011;4947;44.526;11.360;2023-02-15T11:05:07;49.35;;;20.50;;
9815;SDS011;4947;44.526;11.360;2023-02-15T11:07:51;51.00;;;21.33;;
9815;SDS011;4947;44.526;11.360;2023-02-15T11:10:24;47.60;;;20.77;;
9815;SDS011;4947;44.526;11.360;2023-02-15T11:12:56;48.38;;;20.38;;
9815;SDS011;4947;44.526;11.360;2023-02-15T11:15:30;49.88;;;20.52;;
9815;SDS011;4947;44.526;11.360;2023-02-15T11:18:05;47.80;;;21.20;;
9815;SDS011;4947;44.526;11.360;2023-02-15T11:20:38;51.63;;;21.40;;
9815;SDS011;4947;44.526;11.360;2023-02-15T11:23:12;48.03;;;20.60;;
9815;SDS011;4947;44.526;11.360;2023-02-15T11:25:44;42.17;;;19.60;;
9815;SDS011;4947;44.526;11.360;2023-02-15T11:28:17;49.25;;;20.95;;
9815;SDS011;4947;44.526;11.360;2023-02-15T11:30:51;47.55;;;20.77;;
9815;SDS011;4947;44.526;11.360;2023-02-15T11:33:22;49.00;;;21.75;;
9815;SDS011;4947;44.526;11.360;2023-02-15T11:35:53;49.97;;;21.52;;
9815;SDS011;4947;44.526;11.360;2023-02-15T11:38:27;53.45;;;22.65;;
9815;SDS011;4947;44.526;11.360;2023-02-15T11:40:59;50.20;;;22.00;;
9815;SDS011;4947;44.526;11.360;2023-02-15T11:43:32;46.10;;;20.35;;
9815;SDS011;4947;44.526;11.360;2023-02-15T11:46:06;56.13;;;24.08;;
9815;SDS011;4947;44.526;11.360;2023-02-15T11:48:35;53.03;;;21.80;;
9815;SDS011;4947;44.526;11.360;2023-02-15T11:51:03;46.55;;;22.83;;
9815;SDS011;4947;44.526;11.360;2023-02-15T11:53:32;57.42;;;23.92;;
9815;SDS011;4947;44.526;11.360;2023-02-15T11:56:01;52.75;;;21.92;;
9815;SDS011;4947;44.526;11.360;2023-02-15T11:58:33;50.55;;;23.30;;
9815;SDS011;4947;44.526;11.360;2023-02-15T12:01:09;54.13;;;22.85;;
9815;SDS011;4947;44.526;11.360;2023-02-15T12:03:43;50.63;;;22.55;;
9815;SDS011;4947;44.526;11.360;2023-02-15T12:06:16;48.78;;;22.23;;
9815;SDS011;4947;44.526;11.360;2023-02-15T12:08:48;50.92;;;23.10;;
9815;SDS011;4947;44.526;11.360;2023-02-15T12:11:31;54.22;;;24.05;;
9815;SDS011;4947;44.526;11.360;2023-02-15T12:14:02;44.08;;;21.63;;
9815;SDS011;4947;44.526;11.360;2023-02-15T12:16:39;50.85;;;22.10;;
9815;SDS011;4947;44.526;11.360;2023-02-15T12:19:17;52.22;;;23.60;;
9815;SDS011;4947;44.526;11.360;2023-02-15T12:21:55;47.75;;;20.67;;
9815;SDS011;4947;44.526;11.360;2023-02-15T12:24:26;54.10;;;22.38;;
9815;SDS011;4947;44.526;11.360;2023-02-15T12:26:57;49.92;;;23.15;;
9815;SDS011;4947;44.526;11.360;2023-02-15T12:29:28;52.10;;;22.73;;
9815;SDS011;4947;44.526;11.360;2023-02-15T12:32:03;59.47;;;25.45;;
9815;SDS011;4947;44.526;11.360;2023-02-15T12:34:32;52.85;;;23.35;;
9815;SDS011;4947;44.526;11.360;2023-02-15T12:37:11;57.03;;;23.52;;
9815;SDS011;4947;44.526;11.360;2023-02-15T12:39:50;45.28;;;22.48;;
9815;SDS011;4947;44.526;11.360;2023-02-15T12:42:20;51.10;;;23.58;;
9815;SDS011;4947;44.526;11.360;2023-02-15T12:44:56;58.53;;;24.70;;
9815;SDS011;4947;44.526;11.360;2023-02-15T12:47:27;55.55;;;23.10;;
9815;SDS011;4947;44.526;11.360;2023-02-15T12:50:06;55.90;;;25.15;;
9815;SDS011;4947;44.526;11.360;2023-02-15T12:52:41;60.08;;;23.50;;
9815;SDS011;4947;44.526;11.360;2023-02-15T12:55:10;49.63;;;22.70;;
9815;SDS011;4947;44.526;11.360;2023-02-15T12:57:44;49.63;;;21.52;;
9815;SDS011;4947;44.526;11.360;2023-02-15T13:02:59;62.22;;;24.88;;
9815;SDS011;4947;44.526;11.360;2023-02-15T13:05:30;49.22;;;22.48;;
9815;SDS011;4947;44.526;11.360;2023-02-15T13:08:01;51.60;;;23.38;;
9815;SDS011;4947;44.526;11.360;2023-02-15T13:10:31;49.97;;;23.40;;
9815;SDS011;4947;44.526;11.360;2023-02-15T13:13:08;54.83;;;22.00;;
9815;SDS011;4947;44.526;11.360;2023-02-15T13:15:39;57.45;;;23.85;;
9815;SDS011;4947;44.526;11.360;2023-02-15T13:18:13;40.58;;;20.42;;
9815;SDS011;4947;44.526;11.360;2023-02-15T13:20:46;50.13;;;22.30;;
9815;SDS011;4947;44.526;11.360;2023-02-15T13:23:20;46.25;;;21.23;;
9815;SDS011;4947;44.526;11.360;2023-02-15T13:25:54;52.67;;;21.15;;
9815;SDS011;4947;44.526;11.360;2023-02-15T13:28:25;47.03;;;21.35;;
9815;SDS011;4947;44.526;11.360;2023-02-15T13:30:58;44.38;;;20.25;;
9815;SDS011;4947;44.526;11.360;2023-02-15T13:33:29;51.05;;;20.27;;
9815;SDS011;4947;44.526;11.360;2023-02-15T13:36:01;50.80;;;21.27;;
9815;SDS011;4947;44.526;11.360;2023-02-15T13:38:40;45.28;;;22.00;;
9815;SDS011;4947;44.526;11.360;2023-02-15T13:41:17;49.80;;;22.92;;
9815;SDS011;4947;44.526;11.360;2023-02-15T13:43:53;51.80;;;22.17;;
9815;SDS011;4947;44.526;11.360;2023-02-15T13:46:33;55.33;;;23.00;;
9815;SDS011;4947;44.526;11.360;2023-02-15T13:49:17;44.88;;;19.90;;
9815;SDS011;4947;44.526;11.360;2023-02-15T13:51:57;43.00;;;20.15;;
9815;SDS011;4947;44.526;11.360;2023-02-15T13:54:43;47.47;;;19.85;;
9815;SDS011;4947;44.526;11.360;2023-02-15T13:57:32;53.25;;;22.23;;
9815;SDS011;4947;44.526;11.360;2023-02-15T14:00:14;47.25;;;21.50;;
9815;SDS011;4947;44.526;11.360;2023-02-15T14:02:55;47.67;;;21.27;;
9815;SDS011;4947;44.526;11.360;2023-02-15T14:05:36;43.85;;;21.17;;
9815;SDS011;4947;44.526;11.360;2023-02-15T14:08:21;46.50;;;21.10;;
9815;SDS011;4947;44.526;11.360;2023-02-15T14:11:01;46.35;;;21.20;;
9815;SDS011;4947;44.526;11.360;2023-02-15T14:13:39;44.55;;;21.42;;
9815;SDS011;4947;44.526;11.360;2023-02-15T14:16:40;52.17;;;22.42;;
9815;SDS011;4947;44.526;11.360;2023-02-15T14:19:16;53.92;;;22.95;;
9815;SDS011;4947;44.526;11.360;2023-02-15T14:21:55;46.75;;;21.27;;
9815;SDS011;4947;44.526;11.360;2023-02-15T14:24:30;46.58;;;21.48;;
9815;SDS011;4947;44.526;11.360;2023-02-15T14:27:09;50.35;;;20.95;;
9815;SDS011;4947;44.526;11.360;2023-02-15T14:29:46;49.35;;;21.00;;
9815;SDS011;4947;44.526;11.360;2023-02-15T14:32:20;49.92;;;21.85;;
9815;SDS011;4947;44.526;11.360;2023-02-15T14:34:52;55.67;;;21.08;;
9815;SDS011;4947;44.526;11.360;2023-02-15T14:37:24;44.33;;;20.15;;
9815;SDS011;4947;44.526;11.360;2023-02-15T14:40:00;46.97;;;19.50;;
9815;SDS011;4947;44.526;11.360;2023-02-15T14:42:50;45.97;;;20.02;;
9815;SDS011;4947;44.526;11.360;2023-02-15T14:45:26;51.88;;;22.33;;
9815;SDS011;4947;44.526;11.360;2023-02-15T14:48:02;51.10;;;21.83;;
9815;SDS011;4947;44.526;11.360;2023-02-15T14:50:38;50.40;;;18.80;;
9815;SDS011;4947;44.526;11.360;2023-02-15T14:53:15;44.10;;;19.10;;
9815;SDS011;4947;44.526;11.360;2023-02-15T14:59:07;47.78;;;20.13;;
9815;SDS011;4947;44.526;11.360;2023-02-15T15:01:50;51.22;;;21.85;;
9815;SDS011;4947;44.526;11.360;2023-02-15T15:04:23;52.90;;;21.52;;
9815;SDS011;4947;44.526;11.360;2023-02-15T15:07:02;47.17;;;19.83;;
9815;SDS011;4947;44.526;11.360;2023-02-15T15:09:38;50.03;;;20.83;;
9815;SDS011;4947;44.526;11.360;2023-02-15T15:12:14;45.00;;;21.17;;
9815;SDS011;4947;44.526;11.360;2023-02-15T15:14:57;46.15;;;21.10;;
9815;SDS011;4947;44.526;11.360;2023-02-15T15:23:37;49.22;;;21.58;;
9815;SDS011;4947;44.526;11.360;2023-02-15T15:29:11;50.97;;;20.73;;
9815;SDS011;4947;44.526;11.360;2023-02-15T15:31:41;50.63;;;21.17;;
9815;SDS011;4947;44.526;11.360;2023-02-15T15:34:28;48.75;;;20.35;;